Terminal Aerodrome Forecast
Issued by NWS Duluth, MN

Home | Current Version | Previous Version | Text Only | Print | Product List | Glossary On
Versions: 1 2 3 4 5 6 7 8 9 10 11 12 13 14 15 16 17 18 19 20 21 22 23 24 25 26 27 28
000
FTUS43 KDLH 261100 RRA
TAFDLH
TAF
KDLH 261141Z 2612/2712 04006KT P6SM VCSH OVC005
      TEMPO 2612/2614 4SM BR SCT004
     FM261400 04007KT P6SM SCT004 BKN015
     FM261800 08008KT P6SM BKN025
     FM270200 VRB03KT P6SM FEW010 OVC100=

USA.gov is the U.S. government's official web portal to all federal, state and local government web resources and services.